createdAt,value
2023-02-18T00:01:52.133Z,100271.28
2023-02-18T00:04:19.204Z,100258.44
2023-02-18T00:06:46.292Z,100263.47
2023-02-18T00:09:15.963Z,100261.25
2023-02-18T00:11:45.475Z,100257.16
2023-02-18T00:14:16.484Z,100255.19
2023-02-18T00:16:44.793Z,100242.66
2023-02-18T00:19:19.840Z,100247.16
2023-02-18T00:21:50.242Z,100255.66
2023-02-18T00:24:17.604Z,100257.75
2023-02-18T00:26:45.475Z,100253.34
2023-02-18T00:29:14.793Z,100245.63
2023-02-18T00:31:41.880Z,100247.75
2023-02-18T00:34:08.592Z,100234.16
2023-02-18T00:36:35.913Z,100246.13
2023-02-18T00:39:04.600Z,100239.38
2023-02-18T00:41:37.386Z,100236.97
2023-02-18T00:44:07.593Z,100232.72
2023-02-18T00:46:36.966Z,100220.63
2023-02-18T00:49:06.353Z,100234.66
2023-02-18T00:51:33.476Z,100227.97
2023-02-18T00:54:04.928Z,100222.72
2023-02-18T00:56:31.937Z,100212.41
2023-02-18T00:59:03.527Z,100225.38
2023-02-18T01:01:30.458Z,100206.63
2023-02-18T01:03:59.424Z,100203.91
2023-02-18T01:06:26.411Z,100204.84
2023-02-18T01:08:53.054Z,100211.84
2023-02-18T01:11:19.898Z,100217.09
2023-02-18T01:13:46.511Z,100195.59
2023-02-18T01:16:17.125Z,100205.81
2023-02-18T01:18:43.830Z,100192.91
2023-02-18T01:21:10.708Z,100195.69
2023-02-18T01:23:41.880Z,100189.63
2023-02-18T01:26:09.873Z,100191.41
2023-02-18T01:28:40.753Z,100197.34
2023-02-18T01:31:10.132Z,100196.59
2023-02-18T01:33:39.792Z,100193.38
2023-02-18T01:36:07.653Z,100179.69
2023-02-18T01:38:40.286Z,100187.31
2023-02-18T01:41:07.801Z,100172.69
2023-02-18T01:43:37.362Z,100184.00
2023-02-18T01:46:14.915Z,100168.56
2023-02-18T01:48:58.641Z,100185.00
2023-02-18T01:51:39.142Z,100187.63
2023-02-18T01:54:08.802Z,100189.31
2023-02-18T01:56:47.120Z,100187.59
2023-02-18T01:59:17.576Z,100186.91
2023-02-18T02:01:45.934Z,100188.63
2023-02-18T02:04:13.452Z,100183.53
2023-02-18T02:06:40.075Z,100191.28
2023-02-18T02:09:12.080Z,100167.16
2023-02-18T02:12:10.741Z,100161.28
2023-02-18T02:14:49.725Z,100158.72
2023-02-18T02:17:34.344Z,100160.50
2023-02-18T02:20:00.884Z,100157.91
2023-02-18T02:22:36.936Z,100163.13
2023-02-18T02:25:06.834Z,100153.63
2023-02-18T02:28:05.511Z,100157.09
2023-02-18T02:30:44.208Z,100162.25
2023-02-18T02:33:32.026Z,100146.69
2023-02-18T02:36:17.112Z,100167.44
2023-02-18T02:39:10.641Z,100169.16
2023-02-18T02:41:40.292Z,100164.06
2023-02-18T02:44:43.717Z,100177.88
2023-02-18T02:47:29.148Z,100163.97
2023-02-18T02:50:01.820Z,100150.22
2023-02-18T02:52:32.977Z,100165.75
2023-02-18T02:55:02.023Z,100161.44
2023-02-18T02:57:28.707Z,100181.25
2023-02-18T03:00:01.248Z,100159.72
2023-02-18T03:02:36.944Z,100160.63
2023-02-18T03:05:18.434Z,100160.56
2023-02-18T03:08:06.277Z,100170.91
2023-02-18T03:10:51.074Z,100165.75
2023-02-18T03:13:42.519Z,100167.50
2023-02-18T03:16:18.657Z,100170.91
2023-02-18T03:19:26.758Z,100178.66
2023-02-18T03:22:01.558Z,100182.97
2023-02-18T03:24:38.531Z,100186.47
2023-02-18T03:27:32.799Z,100178.66
2023-02-18T03:30:13.239Z,100189.81
2023-02-18T03:32:42.189Z,100179.50
2023-02-18T03:35:13.277Z,100182.88
2023-02-18T03:37:48.228Z,100176.81
2023-02-18T03:40:20.181Z,100187.25
2023-02-18T03:42:47.142Z,100186.38
2023-02-18T03:45:16.387Z,100200.13
2023-02-18T03:47:43.466Z,100191.44
2023-02-18T03:50:17.469Z,100194.09
2023-02-18T03:52:46.632Z,100196.69
2023-02-18T03:55:14.174Z,100197.53
2023-02-18T03:57:40.888Z,100208.63
2023-02-18T04:00:08.594Z,100201.78
2023-02-18T04:02:35.273Z,100197.44
2023-02-18T04:05:02.262Z,100208.56
2023-02-18T04:07:28.869Z,100223.25
2023-02-18T04:09:58.492Z,100212.91
2023-02-18T04:12:25.182Z,100202.69
2023-02-18T04:14:51.983Z,100210.34
2023-02-18T04:17:21.303Z,100218.84
2023-02-18T04:19:47.946Z,100218.09
2023-02-18T04:22:17.020Z,100220.59
2023-02-18T04:24:43.606Z,100223.13
2023-02-18T04:27:10.665Z,100215.44
2023-02-18T04:29:39.641Z,100225.72
2023-02-18T04:32:08.786Z,100219.69
2023-02-18T04:34:35.386Z,100228.31
2023-02-18T04:37:02.003Z,100228.34
2023-02-18T04:39:29.819Z,100221.41
2023-02-18T04:42:01.498Z,100217.09
2023-02-18T04:44:33.018Z,100215.25
2023-02-18T04:46:59.572Z,100232.38
2023-02-18T04:49:28.480Z,100239.16
2023-02-18T04:51:55.191Z,100231.44
2023-02-18T04:54:21.847Z,100237.44
2023-02-18T04:56:48.583Z,100237.41
2023-02-18T04:59:15.300Z,100238.13
2023-02-18T05:01:44.444Z,100242.28
2023-02-18T05:04:11.409Z,100245.66
2023-02-18T05:06:40.811Z,100245.69
2023-02-18T05:09:09.804Z,100245.81
2023-02-18T05:11:36.600Z,100257.97
2023-02-18T05:14:05.851Z,100252.84
2023-02-18T05:16:32.619Z,100239.06
2023-02-18T05:18:59.455Z,100251.22
2023-02-18T05:21:26.091Z,100259.53
2023-02-18T05:23:53.150Z,100263.84
2023-02-18T05:26:22.260Z,100268.06
2023-02-18T05:28:51.231Z,100271.31
2023-02-18T05:31:18.154Z,100267.16
2023-02-18T05:33:47.201Z,100278.38
2023-02-18T05:36:16.282Z,100285.19
2023-02-18T05:38:43.071Z,100282.69
2023-02-18T05:41:09.690Z,100281.59
2023-02-18T05:43:56.330Z,100287.75
2023-02-18T05:46:28.882Z,100286.97
2023-02-18T05:49:00.248Z,100291.97
2023-02-18T05:51:45.394Z,100305.78
2023-02-18T05:54:17.011Z,100305.69
2023-02-18T05:56:43.767Z,100311.38
2023-02-18T05:59:13.168Z,100306.13
2023-02-18T06:01:39.821Z,100324.41
2023-02-18T06:04:06.932Z,100323.75
2023-02-18T06:06:35.959Z,100316.84
2023-02-18T06:09:05.547Z,100320.97
2023-02-18T06:11:36.167Z,100320.94
2023-02-18T06:14:02.781Z,100329.31
2023-02-18T06:16:29.927Z,100325.13
2023-02-18T06:18:59.571Z,100332.94
2023-02-18T06:21:26.264Z,100342.28
2023-02-18T06:23:53.294Z,100342.97
2023-02-18T06:26:20.140Z,100352.66
2023-02-18T06:28:52.300Z,100354.09
2023-02-18T06:31:22.086Z,100363.59
2023-02-18T06:33:51.506Z,100356.53
2023-02-18T06:36:21.371Z,100361.06
2023-02-18T06:38:50.624Z,100359.41
2023-02-18T06:41:20.260Z,100347.06
2023-02-18T06:43:46.853Z,100353.91
2023-02-18T06:46:15.702Z,100360.78
2023-02-18T06:48:42.382Z,100348.47
2023-02-18T06:51:09.027Z,100352.00
2023-02-18T06:53:35.647Z,100346.09
2023-02-18T06:56:04.691Z,100353.91
2023-02-18T06:58:31.178Z,100367.78
2023-02-18T07:01:02.755Z,100351.31
2023-02-18T07:03:31.735Z,100354.78
2023-02-18T07:06:00.751Z,100355.91
2023-02-18T07:08:27.490Z,100367.94
2023-02-18T07:10:54.302Z,100359.41
2023-02-18T07:13:23.428Z,100362.16
2023-02-18T07:15:50.111Z,100362.25
2023-02-18T07:18:19.376Z,100366.44
2023-02-18T07:20:48.935Z,100375.03
2023-02-18T07:23:18.547Z,100379.91
2023-02-18T07:25:47.443Z,100379.28
2023-02-18T07:28:14.179Z,100368.44
2023-02-18T07:30:40.805Z,100371.97
2023-02-18T07:33:07.506Z,100364.31
2023-02-18T07:35:34.531Z,100368.56
2023-02-18T07:38:04.575Z,100359.00
2023-02-18T07:40:31.231Z,100358.53
2023-02-18T07:43:00.875Z,100359.16
2023-02-18T07:45:27.684Z,100353.22
2023-02-18T07:47:56.544Z,100346.59
2023-02-18T07:50:23.194Z,100351.38
2023-02-18T07:52:49.812Z,100347.84
2023-02-18T07:55:21.402Z,100352.88
2023-02-18T07:58:01.460Z,100344.38
2023-02-18T08:00:32.822Z,100349.56
2023-02-18T08:02:59.400Z,100346.09
2023-02-18T08:05:26.074Z,100345.22
2023-02-18T08:07:57.600Z,100345.16
2023-02-18T08:10:26.906Z,100352.03
2023-02-18T08:12:55.691Z,100347.06
2023-02-18T08:15:22.338Z,100343.41
2023-02-18T08:17:49.320Z,100347.00
2023-02-18T08:20:20.774Z,100350.63
2023-02-18T08:22:47.304Z,100350.72
2023-02-18T08:25:28.938Z,100350.72
2023-02-18T08:27:56.588Z,100348.28
2023-02-18T08:30:28.808Z,100356.03
2023-02-18T08:33:00.431Z,100357.09
2023-02-18T08:35:27.249Z,100351.81
2023-02-18T08:37:54.529Z,100346.69
2023-02-18T08:40:21.912Z,100348.50
2023-02-18T08:42:48.600Z,100348.47
2023-02-18T08:45:22.464Z,100351.84
2023-02-18T08:48:17.854Z,100348.63
2023-02-18T08:50:46.883Z,100342.69
2023-02-18T08:53:13.472Z,100344.44
2023-02-18T08:55:49.161Z,100344.41
2023-02-18T08:58:21.311Z,100353.16
2023-02-18T09:00:47.950Z,100353.09
2023-02-18T09:03:15.840Z,100356.63
2023-02-18T09:05:44.850Z,100350.69
2023-02-18T09:08:13.757Z,100359.97
2023-02-18T09:10:46.503Z,100347.03
2023-02-18T09:13:15.379Z,100361.69
2023-02-18T09:15:59.928Z,100349.56
2023-02-18T09:18:26.821Z,100351.13
2023-02-18T09:24:45.009Z,100345.19
2023-02-18T09:27:11.884Z,100338.34
2023-02-18T09:30:02.863Z,100335.34
2023-02-18T09:32:34.830Z,100326.00
2023-02-18T09:35:03.238Z,100339.88
2023-02-18T09:44:52.617Z,100320.28
2023-02-18T09:47:56.858Z,100329.63
2023-02-18T09:54:17.509Z,100326.38
2023-02-18T09:56:47.892Z,100330.78
2023-02-18T09:59:24.902Z,100323.97
2023-02-18T10:01:54.523Z,100323.97
2023-02-18T10:04:51.319Z,100323.19
2023-02-18T10:07:40.169Z,100322.25
2023-02-18T10:10:23.393Z,100324.13
2023-02-18T10:12:56.378Z,100326.69
2023-02-18T10:15:30.457Z,100338.75
2023-02-18T10:18:02.639Z,100318.88
2023-02-18T10:20:35.826Z,100318.84
2023-02-18T10:23:06.388Z,100313.78
2023-02-18T10:25:37.638Z,100316.38
2023-02-18T10:28:04.708Z,100315.44
2023-02-18T10:30:37.747Z,100318.97
2023-02-18T10:33:32.058Z,100317.22
2023-02-18T10:36:25.836Z,100319.03
2023-02-18T10:39:25.151Z,100314.72
2023-02-18T10:42:19.709Z,100312.13
2023-02-18T10:45:00.371Z,100303.63
2023-02-18T10:47:29.931Z,100302.72
2023-02-18T10:50:02.819Z,100297.72
2023-02-18T10:52:33.939Z,100290.91
2023-02-18T10:55:07.238Z,100290.09
2023-02-18T10:57:34.030Z,100286.44
2023-02-18T11:00:02.160Z,100287.41
2023-02-18T11:02:32.984Z,100290.09
2023-02-18T11:05:07.984Z,100278.94
2023-02-18T11:07:38.281Z,100279.63
2023-02-18T11:10:17.267Z,100275.34
2023-02-18T11:12:48.040Z,100273.59
2023-02-18T11:15:17.083Z,100271.91
2023-02-18T11:17:45.619Z,100269.41
2023-02-18T11:20:28.009Z,100263.28
2023-02-18T11:23:06.615Z,100260.66
2023-02-18T11:25:39.557Z,100253.84
2023-02-18T11:28:25.533Z,100252.13
2023-02-18T11:31:03.088Z,100234.00
2023-02-18T11:33:35.846Z,100243.50
2023-02-18T11:36:24.585Z,100230.56
2023-02-18T11:38:57.999Z,100238.34
2023-02-18T11:41:38.344Z,100220.19
2023-02-18T11:44:07.969Z,100219.44
2023-02-18T11:46:36.940Z,100225.53
2023-02-18T11:49:25.234Z,100221.25
2023-02-18T11:51:55.157Z,100209.16
2023-02-18T11:54:44.894Z,100197.97
2023-02-18T11:57:14.484Z,100210.84
2023-02-18T11:59:45.580Z,100201.38
2023-02-18T12:02:12.135Z,100185.84
2023-02-18T12:04:53.410Z,100190.19
2023-02-18T12:07:26.564Z,100185.03
2023-02-18T12:09:58.548Z,100172.06
2023-02-18T12:12:25.339Z,100166.00
2023-02-18T12:14:54.951Z,100166.88
2023-02-18T12:17:36.789Z,100155.69
2023-02-18T12:20:17.996Z,100161.75
2023-02-18T12:22:50.981Z,100136.72
2023-02-18T12:25:38.505Z,100152.25
2023-02-18T12:28:22.768Z,100143.59
2023-02-18T12:30:55.577Z,100139.31
2023-02-18T12:33:49.467Z,100140.16
2023-02-18T12:36:43.885Z,100140.16
2023-02-18T12:39:44.243Z,100128.03
2023-02-18T12:42:29.494Z,100129.72
2023-02-18T12:45:08.164Z,100142.63
2023-02-18T12:48:07.323Z,100124.56
2023-02-18T12:51:08.126Z,100120.25
2023-02-18T12:53:46.782Z,100122.84
2023-02-18T12:56:35.258Z,100119.34
2023-02-18T12:59:30.858Z,100115.94
2023-02-18T13:02:21.892Z,100108.13
2023-02-18T13:04:58.960Z,100100.34
2023-02-18T13:07:49.724Z,100096.88
2023-02-18T13:10:43.913Z,100095.16
2023-02-18T13:13:23.471Z,100087.41
2023-02-18T13:16:04.626Z,100084.75
2023-02-18T13:18:38.082Z,100067.31
2023-02-18T13:21:11.893Z,100080.22
2023-02-18T13:23:51.856Z,100082.75
2023-02-18T13:26:26.969Z,100082.72
2023-02-18T13:29:27.675Z,100077.53
2023-02-18T13:32:11.976Z,100076.66
2023-02-18T13:34:47.439Z,100068.13
2023-02-18T13:37:39.002Z,100062.13
2023-02-18T13:40:17.298Z,100074.25
2023-02-18T13:42:44.347Z,100069.13
2023-02-18T13:45:31.751Z,100056.13
2023-02-18T13:48:02.288Z,100049.97
2023-02-18T13:50:41.826Z,100043.13
2023-02-18T13:53:08.488Z,100032.63
2023-02-18T13:55:41.039Z,100024.72
2023-02-18T13:58:39.992Z,100026.56
2023-02-18T14:01:14.978Z,100029.19
2023-02-18T14:03:45.061Z,100017.13
2023-02-18T14:06:18.159Z,100017.19
2023-02-18T14:08:46.374Z,100005.91
2023-02-18T14:11:12.882Z,100004.09
2023-02-18T14:13:54.317Z,100001.56
2023-02-18T14:16:22.702Z,99989.41
2023-02-18T14:19:02.438Z,99985.91
2023-02-18T14:21:41.640Z,99982.50
2023-02-18T14:24:13.352Z,99985.97
2023-02-18T14:26:46.074Z,99986.00
2023-02-18T14:29:20.817Z,99978.31
2023-02-18T14:31:54.386Z,99967.94
2023-02-18T14:34:24.270Z,99970.63
2023-02-18T14:37:02.971Z,99967.03
2023-02-18T14:39:50.796Z,99951.47
2023-02-18T14:42:32.598Z,99966.19
2023-02-18T14:44:59.294Z,99965.38
2023-02-18T14:47:47.162Z,99961.09
2023-02-18T14:50:18.446Z,99960.25
2023-02-18T14:52:53.549Z,99958.50
2023-02-18T14:55:38.622Z,99961.97
2023-02-18T14:58:28.072Z,99956.78
2023-02-18T15:00:57.639Z,99951.63
2023-02-18T15:03:27.136Z,99951.72
2023-02-18T15:05:58.590Z,99946.69
2023-02-18T15:08:36.687Z,99946.78
2023-02-18T15:11:09.181Z,99952.84
2023-02-18T15:13:48.157Z,99946.88
2023-02-18T15:16:20.961Z,99938.25
2023-02-18T15:18:56.992Z,99951.19
2023-02-18T15:21:35.426Z,99949.41
2023-02-18T15:24:41.397Z,99949.41
2023-02-18T15:27:21.658Z,99957.06
2023-02-18T15:29:59.918Z,99951.06
2023-02-18T15:32:34.707Z,99959.63
2023-02-18T15:35:04.311Z,99955.19
2023-02-18T15:37:31.478Z,99955.28
2023-02-18T15:39:58.702Z,99956.13
2023-02-18T15:42:29.246Z,99952.59
2023-02-18T15:45:02.512Z,99944.72
2023-02-18T15:47:34.769Z,99941.34
2023-02-18T15:50:04.560Z,99944.69
2023-02-18T15:52:38.792Z,99949.06
2023-02-18T15:55:17.862Z,99939.47
2023-02-18T15:57:44.914Z,99945.38
2023-02-18T16:00:30.040Z,99951.13
2023-02-18T16:03:06.481Z,99934.00
2023-02-18T16:05:42.188Z,99940.78
2023-02-18T16:08:16.729Z,99942.38
2023-02-18T16:10:56.253Z,99934.66
2023-02-18T16:13:31.633Z,99943.97
2023-02-18T16:16:03.618Z,99941.88
2023-02-18T16:18:37.671Z,99943.69
2023-02-18T16:21:23.156Z,99933.47
2023-02-18T16:23:59.484Z,99944.41
2023-02-18T16:26:44.999Z,99941.78
2023-02-18T16:29:21.576Z,99931.66
2023-02-18T16:31:48.528Z,99932.50
2023-02-18T16:34:15.335Z,99928.88
2023-02-18T16:37:02.071Z,99933.16
2023-02-18T16:39:32.403Z,99931.53
2023-02-18T16:42:01.312Z,99927.94
2023-02-18T16:44:27.943Z,99912.41
2023-02-18T16:46:57.471Z,99923.09
2023-02-18T16:49:24.507Z,99910.84
2023-02-18T16:51:53.844Z,99926.88
2023-02-18T16:54:23.233Z,99915.03
2023-02-18T16:56:54.663Z,99922.00
2023-02-18T16:59:27.444Z,99927.25
2023-02-18T17:01:54.047Z,99927.78
2023-02-18T17:04:20.693Z,99935.38
2023-02-18T17:06:47.657Z,99925.25
2023-02-18T17:09:17.022Z,99937.41
2023-02-18T17:11:52.220Z,99936.94
2023-02-18T17:14:20.701Z,99942.13
2023-02-18T17:16:51.992Z,99937.66
2023-02-18T17:19:21.446Z,99941.25
2023-02-18T17:21:50.407Z,99936.09
2023-02-18T17:24:20.650Z,99926.75
2023-02-18T17:26:47.667Z,99940.16
2023-02-18T17:29:16.770Z,99948.50
2023-02-18T17:31:47.428Z,99939.78
2023-02-18T17:34:19.903Z,99934.13
2023-02-18T17:36:46.464Z,99936.63
2023-02-18T17:39:14.566Z,99933.09
2023-02-18T17:41:44.608Z,99923.72
2023-02-18T17:44:21.130Z,99923.41
2023-02-18T17:46:50.512Z,99927.94
2023-02-18T17:49:17.209Z,99930.34
2023-02-18T17:51:46.730Z,99917.41
2023-02-18T17:54:18.190Z,99920.81
2023-02-18T17:56:45.564Z,99914.09
2023-02-18T17:59:12.426Z,99919.75
2023-02-18T18:01:42.623Z,99922.50
2023-02-18T18:04:18.449Z,99913.13
2023-02-18T18:06:47.443Z,99911.53
2023-02-18T18:09:14.296Z,99917.59
2023-02-18T18:11:43.497Z,99918.16
2023-02-18T18:14:15.616Z,99923.88
2023-02-18T18:16:44.466Z,99922.84
2023-02-18T18:19:11.070Z,99921.59
2023-02-18T18:21:40.862Z,99931.66
2023-02-18T18:24:13.870Z,99931.97
2023-02-18T18:26:43.015Z,99914.75
2023-02-18T18:29:12.036Z,99918.25
2023-02-18T18:31:41.091Z,99920.09
2023-02-18T18:34:12.100Z,99926.13
2023-02-18T18:36:41.774Z,99916.50
2023-02-18T18:39:11.103Z,99922.91
2023-02-18T18:41:37.670Z,99929.81
2023-02-18T18:44:07.524Z,99929.78
2023-02-18T18:46:34.423Z,99922.13
2023-02-18T18:49:01.291Z,99913.50
2023-02-18T18:51:30.496Z,99911.84
2023-02-18T18:54:00.048Z,99913.88
2023-02-18T18:56:29.075Z,99917.38
2023-02-18T18:58:55.745Z,99919.91
2023-02-18T19:01:23.183Z,99925.72
2023-02-18T19:03:50.278Z,99927.16
2023-02-18T19:06:19.367Z,99929.78
2023-02-18T19:08:47.894Z,99920.44
2023-02-18T19:11:17.675Z,99936.03
2023-02-18T19:13:49.329Z,99930.91
2023-02-18T19:16:45.670Z,99917.53
2023-02-18T19:19:12.674Z,99938.75
2023-02-18T19:21:42.839Z,99925.91
2023-02-18T19:24:11.945Z,99934.78
2023-02-18T19:26:38.500Z,99934.84
2023-02-18T19:29:05.266Z,99933.84
2023-02-18T19:31:36.905Z,99936.69
2023-02-18T19:34:05.911Z,99949.34
2023-02-18T19:36:37.792Z,99951.97
2023-02-18T19:39:04.593Z,99960.72
2023-02-18T19:41:31.474Z,99967.69
2023-02-18T19:43:58.005Z,99963.09
2023-02-18T19:46:29.633Z,99972.69
2023-02-18T19:48:58.754Z,99986.53
2023-02-18T19:51:26.308Z,99987.78
2023-02-18T19:53:53.331Z,99985.38
2023-02-18T19:56:20.173Z,99977.53
2023-02-18T19:58:47.139Z,99973.19
2023-02-18T20:01:15.597Z,99957.78
2023-02-18T20:03:43.241Z,99968.31
2023-02-18T20:06:22.392Z,99970.19
2023-02-18T20:08:49.111Z,99965.22
2023-02-18T20:11:15.751Z,99969.53
2023-02-18T20:13:45.359Z,99984.03
2023-02-18T20:16:12.206Z,99989.16
2023-02-18T20:18:38.982Z,99990.03
2023-02-18T20:21:12.167Z,99982.19
2023-02-18T20:23:39.005Z,99988.16
2023-02-18T20:26:16.995Z,99992.47
2023-02-18T20:28:45.874Z,100003.56
2023-02-18T20:31:15.570Z,99995.72
2023-02-18T20:33:44.942Z,99994.78
2023-02-18T20:36:17.485Z,99998.38
2023-02-18T20:38:44.166Z,99988.78
2023-02-18T20:41:18.243Z,99997.22
2023-02-18T20:43:48.800Z,99994.88
2023-02-18T20:46:17.730Z,99993.81
2023-02-18T20:48:46.910Z,99995.59
2023-02-18T20:51:18.023Z,100005.03
2023-02-18T20:53:46.410Z,100011.84
2023-02-18T20:56:13.187Z,100004.47
2023-02-18T20:58:42.635Z,99992.44
2023-02-18T21:01:15.240Z,99990.63
2023-02-18T21:03:43.342Z,99994.47
2023-02-18T21:06:14.036Z,99997.94
2023-02-18T21:08:41.381Z,100000.75
2023-02-18T21:11:34.612Z,100000.25
2023-02-18T21:14:04.837Z,100017.50
2023-02-18T21:16:38.654Z,100018.38
2023-02-18T21:19:07.363Z,100011.59
2023-02-18T21:21:34.239Z,100030.16
2023-02-18T21:24:01.161Z,100020.25
2023-02-18T21:26:30.800Z,100034.63
2023-02-18T21:29:02.198Z,100027.31
2023-02-18T21:31:33.424Z,100031.66
2023-02-18T21:34:01.077Z,100015.31
2023-02-18T21:36:29.886Z,100007.59
2023-02-18T21:39:02.353Z,100020.09
2023-02-18T21:41:33.368Z,100026.38
2023-02-18T21:44:03.278Z,100025.69
2023-02-18T21:46:32.933Z,100031.81
2023-02-18T21:49:02.603Z,100028.25
2023-02-18T21:51:54.761Z,100036.09
2023-02-18T21:54:30.586Z,100025.00
2023-02-18T21:56:58.934Z,100033.34
2023-02-18T21:59:29.082Z,100038.47
2023-02-18T22:02:02.119Z,100036.66
2023-02-18T22:04:33.961Z,100046.75
2023-02-18T22:07:03.543Z,100033.25
2023-02-18T22:09:33.059Z,100040.31
2023-02-18T22:11:59.750Z,100043.19
2023-02-18T22:14:28.950Z,100030.56
2023-02-18T22:17:00.807Z,100039.34
2023-02-18T22:19:27.484Z,100033.13
2023-02-18T22:21:56.948Z,100046.41
2023-02-18T22:24:27.439Z,100045.00
2023-02-18T22:27:01.292Z,100047.00
2023-02-18T22:29:29.551Z,100040.34
2023-02-18T22:31:56.231Z,100048.94
2023-02-18T22:34:25.701Z,100052.44
2023-02-18T22:36:54.814Z,100048.91
2023-02-18T22:39:24.538Z,100047.22
2023-02-18T22:41:51.134Z,100064.28
2023-02-18T22:44:18.790Z,100060.97
2023-02-18T22:46:46.041Z,100060.84
2023-02-18T22:49:13.202Z,100052.38
2023-02-18T22:51:44.096Z,100064.41
2023-02-18T22:54:16.924Z,100068.59
2023-02-18T22:56:47.247Z,100059.25
2023-02-18T22:59:15.973Z,100059.22
2023-02-18T23:01:49.857Z,100066.03
2023-02-18T23:04:26.072Z,100077.19
2023-02-18T23:06:56.862Z,100071.19
2023-02-18T23:09:26.955Z,100056.56
2023-02-18T23:12:06.531Z,100067.84
2023-02-18T23:14:33.223Z,100061.75
2023-02-18T23:17:14.561Z,100063.22
2023-02-18T23:19:52.843Z,100059.91
2023-02-18T23:22:30.452Z,100070.44
2023-02-18T23:24:57.481Z,100088.44
2023-02-18T23:27:25.338Z,100084.91
2023-02-18T23:29:53.542Z,100075.38
2023-02-18T23:32:20.575Z,100075.34
2023-02-18T23:34:47.163Z,100087.41
2023-02-18T23:37:14.027Z,100075.28
2023-02-18T23:39:47.510Z,100081.16
2023-02-18T23:42:15.304Z,100078.59
2023-02-18T23:44:42.007Z,100074.38
2023-02-18T23:47:08.647Z,100074.19
2023-02-18T23:49:37.644Z,100082.94
2023-02-18T23:52:06.560Z,100083.69
2023-02-18T23:54:37.932Z,100080.28
2023-02-18T23:57:06.900Z,100074.06
2023-02-18T23:59:35.801Z,100077.56
